sensor_id;sensor_type;location;lat;lon;timestamp;temperature;humidity
28532;DHT22;15738;44.860;10.066;2023-02-28T00:02:31;5.80;99.90
28532;DHT22;15738;44.860;10.066;2023-02-28T00:05:18;5.80;99.90
28532;DHT22;15738;44.860;10.066;2023-02-28T00:08:04;5.90;99.90
28532;DHT22;15738;44.860;10.066;2023-02-28T00:10:49;5.90;99.90
28532;DHT22;15738;44.860;10.066;2023-02-28T00:13:36;6.00;99.90
28532;DHT22;15738;44.860;10.066;2023-02-28T00:16:25;6.00;99.90
28532;DHT22;15738;44.860;10.066;2023-02-28T00:19:10;6.10;99.90
28532;DHT22;15738;44.860;10.066;2023-02-28T00:21:58;6.10;99.90
28532;DHT22;15738;44.860;10.066;2023-02-28T00:24:44;6.10;99.90
28532;DHT22;15738;44.860;10.066;2023-02-28T00:27:30;6.10;99.90
28532;DHT22;15738;44.860;10.066;2023-02-28T00:30:16;6.10;99.90
28532;DHT22;15738;44.860;10.066;2023-02-28T00:33:03;6.00;99.90
28532;DHT22;15738;44.860;10.066;2023-02-28T00:35:48;6.00;99.90
28532;DHT22;15738;44.860;10.066;2023-02-28T00:38:34;6.10;99.90
28532;DHT22;15738;44.860;10.066;2023-02-28T00:41:20;6.00;99.90
28532;DHT22;15738;44.860;10.066;2023-02-28T00:44:05;6.10;99.90
28532;DHT22;15738;44.860;10.066;2023-02-28T00:46:51;6.00;99.90
28532;DHT22;15738;44.860;10.066;2023-02-28T00:49:37;5.90;99.90
28532;DHT22;15738;44.860;10.066;2023-02-28T00:52:22;5.90;99.90
28532;DHT22;15738;44.860;10.066;2023-02-28T00:55:08;5.80;99.90
28532;DHT22;15738;44.860;10.066;2023-02-28T00:57:54;5.80;99.90
28532;DHT22;15738;44.860;10.066;2023-02-28T01:00:39;5.70;99.90
28532;DHT22;15738;44.860;10.066;2023-02-28T01:03:25;5.60;99.90
28532;DHT22;15738;44.860;10.066;2023-02-28T01:06:11;5.60;99.90
28532;DHT22;15738;44.860;10.066;2023-02-28T01:08:57;5.60;99.90
28532;DHT22;15738;44.860;10.066;2023-02-28T01:11:43;5.50;99.90
28532;DHT22;15738;44.860;10.066;2023-02-28T01:14:29;5.50;99.90
28532;DHT22;15738;44.860;10.066;2023-02-28T01:17:15;5.50;99.90
28532;DHT22;15738;44.860;10.066;2023-02-28T01:20:00;5.60;99.90
28532;DHT22;15738;44.860;10.066;2023-02-28T01:22:46;5.60;99.90
28532;DHT22;15738;44.860;10.066;2023-02-28T01:25:34;5.60;99.90
28532;DHT22;15738;44.860;10.066;2023-02-28T01:28:21;5.50;99.90
28532;DHT22;15738;44.860;10.066;2023-02-28T01:31:08;5.50;99.90
28532;DHT22;15738;44.860;10.066;2023-02-28T01:33:55;5.50;99.90
28532;DHT22;15738;44.860;10.066;2023-02-28T01:36:41;5.50;99.90
28532;DHT22;15738;44.860;10.066;2023-02-28T01:39:26;5.60;99.90
28532;DHT22;15738;44.860;10.066;2023-02-28T01:42:12;5.50;99.90
28532;DHT22;15738;44.860;10.066;2023-02-28T01:45:16;5.50;99.90
28532;DHT22;15738;44.860;10.066;2023-02-28T01:48:05;5.40;99.90
28532;DHT22;15738;44.860;10.066;2023-02-28T01:50:53;5.50;99.90
28532;DHT22;15738;44.860;10.066;2023-02-28T01:53:44;5.40;99.90
28532;DHT22;15738;44.860;10.066;2023-02-28T01:56:32;5.30;99.90
28532;DHT22;15738;44.860;10.066;2023-02-28T01:59:23;5.30;99.90
28532;DHT22;15738;44.860;10.066;2023-02-28T02:02:10;5.30;99.90
28532;DHT22;15738;44.860;10.066;2023-02-28T02:04:58;5.30;99.90
28532;DHT22;15738;44.860;10.066;2023-02-28T02:07:48;5.40;99.90
28532;DHT22;15738;44.860;10.066;2023-02-28T02:28:03;5.70;99.90
28532;DHT22;15738;44.860;10.066;2023-02-28T02:30:59;5.70;99.90
28532;DHT22;15738;44.860;10.066;2023-02-28T02:36:56;5.70;99.90
28532;DHT22;15738;44.860;10.066;2023-02-28T02:48:51;5.60;99.90
28532;DHT22;15738;44.860;10.066;2023-02-28T02:51:38;5.60;99.90
28532;DHT22;15738;44.860;10.066;2023-02-28T02:54:25;5.60;99.90
28532;DHT22;15738;44.860;10.066;2023-02-28T02:57:17;5.60;99.90
28532;DHT22;15738;44.860;10.066;2023-02-28T03:00:06;5.50;99.90
28532;DHT22;15738;44.860;10.066;2023-02-28T03:02:54;5.40;99.90
28532;DHT22;15738;44.860;10.066;2023-02-28T03:05:48;5.40;99.90
28532;DHT22;15738;44.860;10.066;2023-02-28T03:08:35;5.40;99.90
28532;DHT22;15738;44.860;10.066;2023-02-28T03:11:21;5.40;99.90
28532;DHT22;15738;44.860;10.066;2023-02-28T03:20:07;5.40;99.90
28532;DHT22;15738;44.860;10.066;2023-02-28T03:23:09;5.40;99.90
28532;DHT22;15738;44.860;10.066;2023-02-28T03:26:04;5.40;99.90
28532;DHT22;15738;44.860;10.066;2023-02-28T03:28:53;5.40;99.90
28532;DHT22;15738;44.860;10.066;2023-02-28T03:31:45;5.40;99.90
28532;DHT22;15738;44.860;10.066;2023-02-28T03:34:37;5.30;99.90
28532;DHT22;15738;44.860;10.066;2023-02-28T03:37:23;5.30;99.90
28532;DHT22;15738;44.860;10.066;2023-02-28T03:40:11;5.40;99.90
28532;DHT22;15738;44.860;10.066;2023-02-28T03:43:07;5.30;99.90
28532;DHT22;15738;44.860;10.066;2023-02-28T03:45:55;5.30;99.90
28532;DHT22;15738;44.860;10.066;2023-02-28T03:48:43;5.30;99.90
28532;DHT22;15738;44.860;10.066;2023-02-28T03:51:29;5.20;99.90
28532;DHT22;15738;44.860;10.066;2023-02-28T03:54:22;5.20;99.90
28532;DHT22;15738;44.860;10.066;2023-02-28T03:57:29;5.20;99.90
28532;DHT22;15738;44.860;10.066;2023-02-28T04:00:19;5.20;99.90
28532;DHT22;15738;44.860;10.066;2023-02-28T04:03:05;5.20;99.90
28532;DHT22;15738;44.860;10.066;2023-02-28T04:05:52;5.10;99.90
28532;DHT22;15738;44.860;10.066;2023-02-28T04:08:38;5.20;99.90
28532;DHT22;15738;44.860;10.066;2023-02-28T04:11:32;5.20;99.90
28532;DHT22;15738;44.860;10.066;2023-02-28T04:14:20;5.20;99.90
28532;DHT22;15738;44.860;10.066;2023-02-28T04:17:05;5.30;99.90
28532;DHT22;15738;44.860;10.066;2023-02-28T04:19:51;5.20;99.90
28532;DHT22;15738;44.860;10.066;2023-02-28T04:22:37;5.40;99.90
28532;DHT22;15738;44.860;10.066;2023-02-28T04:25:23;5.30;99.90
28532;DHT22;15738;44.860;10.066;2023-02-28T04:28:08;5.20;99.90
28532;DHT22;15738;44.860;10.066;2023-02-28T04:30:56;5.10;99.90
28532;DHT22;15738;44.860;10.066;2023-02-28T04:33:41;5.10;99.90
28532;DHT22;15738;44.860;10.066;2023-02-28T04:36:27;5.10;99.90
28532;DHT22;15738;44.860;10.066;2023-02-28T04:39:13;5.10;99.90
28532;DHT22;15738;44.860;10.066;2023-02-28T04:41:59;5.10;99.90
28532;DHT22;15738;44.860;10.066;2023-02-28T04:44:45;5.10;99.90
28532;DHT22;15738;44.860;10.066;2023-02-28T04:47:30;5.00;99.90
28532;DHT22;15738;44.860;10.066;2023-02-28T04:50:16;5.10;99.90
28532;DHT22;15738;44.860;10.066;2023-02-28T04:53:02;5.10;99.90
28532;DHT22;15738;44.860;10.066;2023-02-28T04:55:47;5.20;99.90
28532;DHT22;15738;44.860;10.066;2023-02-28T04:58:33;5.10;99.90
28532;DHT22;15738;44.860;10.066;2023-02-28T05:04:04;5.10;99.90
28532;DHT22;15738;44.860;10.066;2023-02-28T05:06:51;4.80;99.90
28532;DHT22;15738;44.860;10.066;2023-02-28T05:09:36;4.70;99.90
28532;DHT22;15738;44.860;10.066;2023-02-28T05:12:22;4.60;99.90
28532;DHT22;15738;44.860;10.066;2023-02-28T05:15:09;4.60;99.90
28532;DHT22;15738;44.860;10.066;2023-02-28T05:17:57;4.60;99.90
28532;DHT22;15738;44.860;10.066;2023-02-28T05:20:43;4.60;99.90
28532;DHT22;15738;44.860;10.066;2023-02-28T05:23:29;4.60;99.90
28532;DHT22;15738;44.860;10.066;2023-02-28T05:26:15;4.70;99.90
28532;DHT22;15738;44.860;10.066;2023-02-28T05:29:01;4.80;99.90
28532;DHT22;15738;44.860;10.066;2023-02-28T05:31:46;4.90;99.90
28532;DHT22;15738;44.860;10.066;2023-02-28T05:34:32;4.90;99.90
28532;DHT22;15738;44.860;10.066;2023-02-28T05:37:17;5.00;99.90
28532;DHT22;15738;44.860;10.066;2023-02-28T05:40:04;5.10;99.90
28532;DHT22;15738;44.860;10.066;2023-02-28T05:42:55;5.10;99.90
28532;DHT22;15738;44.860;10.066;2023-02-28T05:45:41;5.20;99.90
28532;DHT22;15738;44.860;10.066;2023-02-28T05:48:26;5.20;99.90
28532;DHT22;15738;44.860;10.066;2023-02-28T05:51:12;5.20;99.90
28532;DHT22;15738;44.860;10.066;2023-02-28T05:54:00;5.20;99.90
28532;DHT22;15738;44.860;10.066;2023-02-28T05:56:46;5.20;99.90
28532;DHT22;15738;44.860;10.066;2023-02-28T05:59:32;5.20;99.90
28532;DHT22;15738;44.860;10.066;2023-02-28T06:02:18;5.20;99.90
28532;DHT22;15738;44.860;10.066;2023-02-28T06:05:04;5.20;99.90
28532;DHT22;15738;44.860;10.066;2023-02-28T06:07:50;5.20;99.90
28532;DHT22;15738;44.860;10.066;2023-02-28T06:10:35;5.20;99.90
28532;DHT22;15738;44.860;10.066;2023-02-28T06:13:20;5.20;99.90
28532;DHT22;15738;44.860;10.066;2023-02-28T06:16:07;5.20;99.90
28532;DHT22;15738;44.860;10.066;2023-02-28T06:18:53;5.20;99.90
28532;DHT22;15738;44.860;10.066;2023-02-28T06:21:41;5.20;99.90
28532;DHT22;15738;44.860;10.066;2023-02-28T06:24:26;5.10;99.90
28532;DHT22;15738;44.860;10.066;2023-02-28T06:27:16;5.10;99.90
28532;DHT22;15738;44.860;10.066;2023-02-28T06:30:02;5.10;99.90
28532;DHT22;15738;44.860;10.066;2023-02-28T06:32:49;5.10;99.90
28532;DHT22;15738;44.860;10.066;2023-02-28T06:35:34;5.10;99.90
28532;DHT22;15738;44.860;10.066;2023-02-28T06:38:20;5.20;99.90
28532;DHT22;15738;44.860;10.066;2023-02-28T06:41:06;5.20;99.90
28532;DHT22;15738;44.860;10.066;2023-02-28T06:43:52;5.20;99.90
28532;DHT22;15738;44.860;10.066;2023-02-28T06:46:38;5.20;99.90
28532;DHT22;15738;44.860;10.066;2023-02-28T06:49:24;5.10;99.90
28532;DHT22;15738;44.860;10.066;2023-02-28T06:52:10;5.10;99.90
28532;DHT22;15738;44.860;10.066;2023-02-28T06:54:55;5.20;99.90
28532;DHT22;15738;44.860;10.066;2023-02-28T06:57:50;5.20;99.90
28532;DHT22;15738;44.860;10.066;2023-02-28T07:00:35;5.30;99.90
28532;DHT22;15738;44.860;10.066;2023-02-28T07:03:21;5.30;99.90
28532;DHT22;15738;44.860;10.066;2023-02-28T07:06:06;5.20;99.90
28532;DHT22;15738;44.860;10.066;2023-02-28T07:08:53;5.30;99.90
28532;DHT22;15738;44.860;10.066;2023-02-28T07:16:03;5.20;99.90
28532;DHT22;15738;44.860;10.066;2023-02-28T07:18:49;5.30;99.90
28532;DHT22;15738;44.860;10.066;2023-02-28T07:21:35;5.30;99.90
28532;DHT22;15738;44.860;10.066;2023-02-28T07:24:20;5.30;99.90
28532;DHT22;15738;44.860;10.066;2023-02-28T07:27:06;5.20;99.90
28532;DHT22;15738;44.860;10.066;2023-02-28T07:29:52;5.20;99.90
28532;DHT22;15738;44.860;10.066;2023-02-28T07:32:38;5.20;99.90
28532;DHT22;15738;44.860;10.066;2023-02-28T07:35:24;5.10;99.90
28532;DHT22;15738;44.860;10.066;2023-02-28T07:38:09;5.20;99.90
28532;DHT22;15738;44.860;10.066;2023-02-28T07:40:55;5.10;99.90
28532;DHT22;15738;44.860;10.066;2023-02-28T07:43:41;5.10;99.90
28532;DHT22;15738;44.860;10.066;2023-02-28T07:46:26;5.20;99.90
28532;DHT22;15738;44.860;10.066;2023-02-28T07:49:14;5.20;99.90
28532;DHT22;15738;44.860;10.066;2023-02-28T07:52:01;5.20;99.90
28532;DHT22;15738;44.860;10.066;2023-02-28T07:54:46;5.20;99.90
28532;DHT22;15738;44.860;10.066;2023-02-28T07:57:32;5.30;99.90
28532;DHT22;15738;44.860;10.066;2023-02-28T08:00:20;5.30;99.90
28532;DHT22;15738;44.860;10.066;2023-02-28T08:03:06;5.30;99.90
28532;DHT22;15738;44.860;10.066;2023-02-28T08:05:51;5.30;99.90
28532;DHT22;15738;44.860;10.066;2023-02-28T08:08:38;5.30;99.90
28532;DHT22;15738;44.860;10.066;2023-02-28T08:11:24;5.40;99.90
28532;DHT22;15738;44.860;10.066;2023-02-28T08:14:10;5.40;99.90
28532;DHT22;15738;44.860;10.066;2023-02-28T08:16:56;5.50;99.90
28532;DHT22;15738;44.860;10.066;2023-02-28T08:19:41;5.50;99.90
28532;DHT22;15738;44.860;10.066;2023-02-28T08:22:27;5.60;99.90
28532;DHT22;15738;44.860;10.066;2023-02-28T08:25:12;5.60;99.90
28532;DHT22;15738;44.860;10.066;2023-02-28T08:27:59;5.70;99.90
28532;DHT22;15738;44.860;10.066;2023-02-28T08:30:44;5.80;99.90
28532;DHT22;15738;44.860;10.066;2023-02-28T08:33:31;5.80;99.90
28532;DHT22;15738;44.860;10.066;2023-02-28T08:36:18;5.80;99.90
28532;DHT22;15738;44.860;10.066;2023-02-28T08:39:05;5.80;99.90
28532;DHT22;15738;44.860;10.066;2023-02-28T08:41:50;5.90;99.90
28532;DHT22;15738;44.860;10.066;2023-02-28T08:44:51;5.80;99.90
28532;DHT22;15738;44.860;10.066;2023-02-28T08:47:37;5.80;99.90
28532;DHT22;15738;44.860;10.066;2023-02-28T08:50:23;5.80;99.90
28532;DHT22;15738;44.860;10.066;2023-02-28T08:53:08;5.90;99.90
28532;DHT22;15738;44.860;10.066;2023-02-28T08:56:00;5.90;99.90
28532;DHT22;15738;44.860;10.066;2023-02-28T08:58:47;5.80;99.90
28532;DHT22;15738;44.860;10.066;2023-02-28T09:01:33;5.90;99.90
28532;DHT22;15738;44.860;10.066;2023-02-28T09:04:18;6.00;99.90
28532;DHT22;15738;44.860;10.066;2023-02-28T09:07:05;6.10;99.90
28532;DHT22;15738;44.860;10.066;2023-02-28T09:09:51;6.20;99.90
28532;DHT22;15738;44.860;10.066;2023-02-28T09:12:39;6.30;99.90
28532;DHT22;15738;44.860;10.066;2023-02-28T09:15:25;6.40;99.90
28532;DHT22;15738;44.860;10.066;2023-02-28T09:18:11;6.50;99.90
28532;DHT22;15738;44.860;10.066;2023-02-28T09:20:57;6.50;99.90
28532;DHT22;15738;44.860;10.066;2023-02-28T09:23:46;6.60;99.90
28532;DHT22;15738;44.860;10.066;2023-02-28T09:26:32;6.60;99.90
28532;DHT22;15738;44.860;10.066;2023-02-28T09:29:27;6.60;99.90
28532;DHT22;15738;44.860;10.066;2023-02-28T09:32:14;6.70;99.90
28532;DHT22;15738;44.860;10.066;2023-02-28T09:34:59;6.70;99.90
28532;DHT22;15738;44.860;10.066;2023-02-28T09:37:45;6.60;99.90
28532;DHT22;15738;44.860;10.066;2023-02-28T09:40:35;6.70;99.90
28532;DHT22;15738;44.860;10.066;2023-02-28T09:43:22;6.60;99.90
28532;DHT22;15738;44.860;10.066;2023-02-28T09:48:56;6.90;99.90
28532;DHT22;15738;44.860;10.066;2023-02-28T09:54:30;6.80;99.90
28532;DHT22;15738;44.860;10.066;2023-02-28T10:06:14;6.90;99.90
28532;DHT22;15738;44.860;10.066;2023-02-28T10:09:11;7.00;99.90
28532;DHT22;15738;44.860;10.066;2023-02-28T10:12:03;7.00;99.90
28532;DHT22;15738;44.860;10.066;2023-02-28T10:14:51;7.10;99.90
28532;DHT22;15738;44.860;10.066;2023-02-28T10:17:41;7.20;99.90
28532;DHT22;15738;44.860;10.066;2023-02-28T10:20:40;7.20;99.90
28532;DHT22;15738;44.860;10.066;2023-02-28T10:23:34;7.30;99.90
28532;DHT22;15738;44.860;10.066;2023-02-28T10:26:20;7.30;99.90
28532;DHT22;15738;44.860;10.066;2023-02-28T10:29:07;7.30;99.90
28532;DHT22;15738;44.860;10.066;2023-02-28T10:31:53;7.40;99.90
28532;DHT22;15738;44.860;10.066;2023-02-28T10:34:39;7.40;99.90
28532;DHT22;15738;44.860;10.066;2023-02-28T10:37:24;7.50;99.90
28532;DHT22;15738;44.860;10.066;2023-02-28T10:48:50;7.40;99.90
28532;DHT22;15738;44.860;10.066;2023-02-28T10:51:43;7.30;99.90
28532;DHT22;15738;44.860;10.066;2023-02-28T10:54:30;7.30;99.90
28532;DHT22;15738;44.860;10.066;2023-02-28T10:57:19;7.50;99.90
28532;DHT22;15738;44.860;10.066;2023-02-28T11:00:16;7.60;99.90
28532;DHT22;15738;44.860;10.066;2023-02-28T11:03:02;7.70;99.90
28532;DHT22;15738;44.860;10.066;2023-02-28T11:06:07;7.90;99.90
28532;DHT22;15738;44.860;10.066;2023-02-28T11:08:54;8.00;99.90
28532;DHT22;15738;44.860;10.066;2023-02-28T11:11:44;8.00;99.90
28532;DHT22;15738;44.860;10.066;2023-02-28T11:14:31;8.10;99.90
28532;DHT22;15738;44.860;10.066;2023-02-28T11:17:20;8.20;99.90
28532;DHT22;15738;44.860;10.066;2023-02-28T11:20:07;8.30;99.90
28532;DHT22;15738;44.860;10.066;2023-02-28T11:23:00;7.90;99.90
28532;DHT22;15738;44.860;10.066;2023-02-28T11:25:47;7.90;99.90
28532;DHT22;15738;44.860;10.066;2023-02-28T11:28:36;8.10;99.90
28532;DHT22;15738;44.860;10.066;2023-02-28T11:31:24;8.30;99.90
28532;DHT22;15738;44.860;10.066;2023-02-28T11:34:30;8.40;99.90
28532;DHT22;15738;44.860;10.066;2023-02-28T11:37:18;8.40;99.90
28532;DHT22;15738;44.860;10.066;2023-02-28T11:40:17;8.50;99.90
28532;DHT22;15738;44.860;10.066;2023-02-28T11:43:12;8.20;99.90
28532;DHT22;15738;44.860;10.066;2023-02-28T11:48:59;8.10;99.90
28532;DHT22;15738;44.860;10.066;2023-02-28T11:51:51;8.30;99.90
28532;DHT22;15738;44.860;10.066;2023-02-28T11:58:01;8.40;99.90
28532;DHT22;15738;44.860;10.066;2023-02-28T12:03:55;8.40;99.90
28532;DHT22;15738;44.860;10.066;2023-02-28T12:09:43;8.60;99.90
28532;DHT22;15738;44.860;10.066;2023-02-28T12:12:45;8.70;99.90
28532;DHT22;15738;44.860;10.066;2023-02-28T12:21:36;8.80;99.90
28532;DHT22;15738;44.860;10.066;2023-02-28T12:27:20;8.90;99.90
28532;DHT22;15738;44.860;10.066;2023-02-28T12:33:17;9.10;99.90
28532;DHT22;15738;44.860;10.066;2023-02-28T12:36:07;9.00;99.90
28532;DHT22;15738;44.860;10.066;2023-02-28T12:38:56;8.90;99.90
28532;DHT22;15738;44.860;10.066;2023-02-28T12:41:46;8.80;99.90
28532;DHT22;15738;44.860;10.066;2023-02-28T12:44:34;9.00;99.90
28532;DHT22;15738;44.860;10.066;2023-02-28T12:47:21;8.90;99.90
28532;DHT22;15738;44.860;10.066;2023-02-28T12:50:08;8.90;99.90
28532;DHT22;15738;44.860;10.066;2023-02-28T12:53:09;9.10;99.90
28532;DHT22;15738;44.860;10.066;2023-02-28T12:59:03;9.00;99.90
28532;DHT22;15738;44.860;10.066;2023-02-28T13:07:49;8.80;99.90
28532;DHT22;15738;44.860;10.066;2023-02-28T13:10:47;9.00;99.90
28532;DHT22;15738;44.860;10.066;2023-02-28T13:13:35;9.10;99.90
28532;DHT22;15738;44.860;10.066;2023-02-28T13:16:21;9.20;99.90
28532;DHT22;15738;44.860;10.066;2023-02-28T13:19:08;9.40;99.90
28532;DHT22;15738;44.860;10.066;2023-02-28T13:21:55;9.30;99.90
28532;DHT22;15738;44.860;10.066;2023-02-28T13:24:43;9.20;99.90
28532;DHT22;15738;44.860;10.066;2023-02-28T13:27:36;9.20;99.90
28532;DHT22;15738;44.860;10.066;2023-02-28T13:39:01;9.40;99.90
28532;DHT22;15738;44.860;10.066;2023-02-28T13:41:49;9.60;99.90
28532;DHT22;15738;44.860;10.066;2023-02-28T13:44:49;9.50;99.90
28532;DHT22;15738;44.860;10.066;2023-02-28T13:47:41;9.40;99.90
28532;DHT22;15738;44.860;10.066;2023-02-28T13:59:18;9.70;99.90
28532;DHT22;15738;44.860;10.066;2023-02-28T14:08:21;9.70;99.90
28532;DHT22;15738;44.860;10.066;2023-02-28T14:11:22;9.80;99.90
28532;DHT22;15738;44.860;10.066;2023-02-28T14:14:09;9.90;99.90
28532;DHT22;15738;44.860;10.066;2023-02-28T14:16:55;9.80;99.90
28532;DHT22;15738;44.860;10.066;2023-02-28T14:19:43;9.80;99.90
28532;DHT22;15738;44.860;10.066;2023-02-28T14:22:42;9.90;99.90
28532;DHT22;15738;44.860;10.066;2023-02-28T14:32:15;9.90;99.90
28532;DHT22;15738;44.860;10.066;2023-02-28T14:37:56;10.00;99.90
28532;DHT22;15738;44.860;10.066;2023-02-28T14:40:42;9.90;99.90
28532;DHT22;15738;44.860;10.066;2023-02-28T14:43:28;9.90;99.90
28532;DHT22;15738;44.860;10.066;2023-02-28T14:46:14;10.00;99.90
28532;DHT22;15738;44.860;10.066;2023-02-28T14:49:03;10.00;99.90
28532;DHT22;15738;44.860;10.066;2023-02-28T14:51:51;10.00;99.90
28532;DHT22;15738;44.860;10.066;2023-02-28T14:54:47;9.80;99.90
28532;DHT22;15738;44.860;10.066;2023-02-28T14:57:40;9.70;99.90
28532;DHT22;15738;44.860;10.066;2023-02-28T15:00:28;9.60;99.90
28532;DHT22;15738;44.860;10.066;2023-02-28T15:03:20;9.50;99.90
28532;DHT22;15738;44.860;10.066;2023-02-28T15:06:14;9.40;99.90
28532;DHT22;15738;44.860;10.066;2023-02-28T15:09:07;9.30;99.90
28532;DHT22;15738;44.860;10.066;2023-02-28T15:11:54;9.20;99.90
28532;DHT22;15738;44.860;10.066;2023-02-28T15:14:42;9.20;99.90
28532;DHT22;15738;44.860;10.066;2023-02-28T15:17:28;9.20;99.90
28532;DHT22;15738;44.860;10.066;2023-02-28T15:20:14;9.20;99.90
28532;DHT22;15738;44.860;10.066;2023-02-28T15:23:01;9.10;99.90
28532;DHT22;15738;44.860;10.066;2023-02-28T15:25:47;9.00;99.90
28532;DHT22;15738;44.860;10.066;2023-02-28T15:28:33;9.00;99.90
28532;DHT22;15738;44.860;10.066;2023-02-28T15:31:20;8.90;99.90
28532;DHT22;15738;44.860;10.066;2023-02-28T15:34:06;8.90;99.90
28532;DHT22;15738;44.860;10.066;2023-02-28T15:36:57;8.90;99.90
28532;DHT22;15738;44.860;10.066;2023-02-28T15:39:43;8.80;99.90
28532;DHT22;15738;44.860;10.066;2023-02-28T15:42:29;8.80;99.90
28532;DHT22;15738;44.860;10.066;2023-02-28T15:45:26;8.80;99.90
28532;DHT22;15738;44.860;10.066;2023-02-28T15:48:35;8.80;99.90
28532;DHT22;15738;44.860;10.066;2023-02-28T15:51:22;8.80;99.90
28532;DHT22;15738;44.860;10.066;2023-02-28T15:54:11;8.90;99.90
28532;DHT22;15738;44.860;10.066;2023-02-28T15:56:59;8.80;99.90
28532;DHT22;15738;44.860;10.066;2023-02-28T15:59:51;8.80;99.90
28532;DHT22;15738;44.860;10.066;2023-02-28T16:02:37;8.90;99.90
28532;DHT22;15738;44.860;10.066;2023-02-28T16:05:24;8.90;99.90
28532;DHT22;15738;44.860;10.066;2023-02-28T16:08:14;8.90;99.90
28532;DHT22;15738;44.860;10.066;2023-02-28T16:11:00;8.90;99.90
28532;DHT22;15738;44.860;10.066;2023-02-28T16:13:46;8.90;99.90
28532;DHT22;15738;44.860;10.066;2023-02-28T16:16:32;8.90;99.90
28532;DHT22;15738;44.860;10.066;2023-02-28T16:19:18;8.90;99.90
28532;DHT22;15738;44.860;10.066;2023-02-28T16:22:03;8.90;99.90
28532;DHT22;15738;44.860;10.066;2023-02-28T16:24:49;8.80;99.90
28532;DHT22;15738;44.860;10.066;2023-02-28T16:27:35;8.80;99.90
28532;DHT22;15738;44.860;10.066;2023-02-28T16:30:25;8.80;99.90
28532;DHT22;15738;44.860;10.066;2023-02-28T16:33:12;8.80;99.90
28532;DHT22;15738;44.860;10.066;2023-02-28T16:35:57;8.60;99.90
28532;DHT22;15738;44.860;10.066;2023-02-28T16:38:42;8.60;99.90
28532;DHT22;15738;44.860;10.066;2023-02-28T16:41:28;8.50;99.90
28532;DHT22;15738;44.860;10.066;2023-02-28T16:44:21;8.50;99.90
28532;DHT22;15738;44.860;10.066;2023-02-28T16:47:10;8.40;99.90
28532;DHT22;15738;44.860;10.066;2023-02-28T16:49:56;8.30;99.90
28532;DHT22;15738;44.860;10.066;2023-02-28T16:52:41;8.30;99.90
28532;DHT22;15738;44.860;10.066;2023-02-28T16:55:27;8.20;99.90
28532;DHT22;15738;44.860;10.066;2023-02-28T16:58:13;8.20;99.90
28532;DHT22;15738;44.860;10.066;2023-02-28T17:00:59;8.20;99.90
28532;DHT22;15738;44.860;10.066;2023-02-28T17:03:45;8.20;99.90
28532;DHT22;15738;44.860;10.066;2023-02-28T17:06:31;8.10;99.90
28532;DHT22;15738;44.860;10.066;2023-02-28T17:09:18;8.10;99.90
28532;DHT22;15738;44.860;10.066;2023-02-28T17:12:06;8.00;99.90
28532;DHT22;15738;44.860;10.066;2023-02-28T17:14:52;7.90;99.90
28532;DHT22;15738;44.860;10.066;2023-02-28T17:17:37;7.90;99.90
28532;DHT22;15738;44.860;10.066;2023-02-28T17:20:23;7.90;99.90
28532;DHT22;15738;44.860;10.066;2023-02-28T17:23:08;7.80;99.90
28532;DHT22;15738;44.860;10.066;2023-02-28T17:25:53;7.80;99.90
28532;DHT22;15738;44.860;10.066;2023-02-28T17:28:42;7.80;99.90
28532;DHT22;15738;44.860;10.066;2023-02-28T17:31:27;7.70;99.90
28532;DHT22;15738;44.860;10.066;2023-02-28T17:34:14;7.70;99.90
28532;DHT22;15738;44.860;10.066;2023-02-28T17:37:03;7.70;99.90
28532;DHT22;15738;44.860;10.066;2023-02-28T17:39:49;7.70;99.90
28532;DHT22;15738;44.860;10.066;2023-02-28T17:42:34;7.70;99.90
28532;DHT22;15738;44.860;10.066;2023-02-28T17:45:19;7.60;99.90
28532;DHT22;15738;44.860;10.066;2023-02-28T17:48:05;7.60;99.90
28532;DHT22;15738;44.860;10.066;2023-02-28T17:50:51;7.60;99.90
28532;DHT22;15738;44.860;10.066;2023-02-28T17:53:36;7.50;99.90
28532;DHT22;15738;44.860;10.066;2023-02-28T17:56:23;7.50;99.90
28532;DHT22;15738;44.860;10.066;2023-02-28T17:59:09;7.50;99.90
28532;DHT22;15738;44.860;10.066;2023-02-28T18:01:57;7.40;99.90
28532;DHT22;15738;44.860;10.066;2023-02-28T18:04:42;7.30;99.90
28532;DHT22;15738;44.860;10.066;2023-02-28T18:07:28;7.20;99.90
28532;DHT22;15738;44.860;10.066;2023-02-28T18:10:15;7.20;99.90
28532;DHT22;15738;44.860;10.066;2023-02-28T18:13:04;7.20;99.90
28532;DHT22;15738;44.860;10.066;2023-02-28T18:15:50;7.10;99.90
28532;DHT22;15738;44.860;10.066;2023-02-28T18:18:35;7.10;99.90
28532;DHT22;15738;44.860;10.066;2023-02-28T18:21:23;7.10;99.90
28532;DHT22;15738;44.860;10.066;2023-02-28T18:24:08;7.10;99.90
28532;DHT22;15738;44.860;10.066;2023-02-28T18:26:56;7.10;99.90
28532;DHT22;15738;44.860;10.066;2023-02-28T18:29:42;7.10;99.90
28532;DHT22;15738;44.860;10.066;2023-02-28T18:32:28;7.10;99.90
28532;DHT22;15738;44.860;10.066;2023-02-28T18:35:14;7.20;99.90
28532;DHT22;15738;44.860;10.066;2023-02-28T18:38:17;7.20;99.90
28532;DHT22;15738;44.860;10.066;2023-02-28T18:41:06;7.20;99.90
28532;DHT22;15738;44.860;10.066;2023-02-28T18:43:52;7.20;99.90
28532;DHT22;15738;44.860;10.066;2023-02-28T18:46:38;7.20;99.90
28532;DHT22;15738;44.860;10.066;2023-02-28T18:49:24;7.20;99.90
28532;DHT22;15738;44.860;10.066;2023-02-28T18:52:09;7.20;99.90
28532;DHT22;15738;44.860;10.066;2023-02-28T18:54:55;7.20;99.90
28532;DHT22;15738;44.860;10.066;2023-02-28T18:57:40;7.20;99.90
28532;DHT22;15738;44.860;10.066;2023-02-28T19:00:26;7.20;99.90
28532;DHT22;15738;44.860;10.066;2023-02-28T19:03:11;7.20;99.90
28532;DHT22;15738;44.860;10.066;2023-02-28T19:05:58;7.20;99.90
28532;DHT22;15738;44.860;10.066;2023-02-28T19:08:44;7.20;99.90
28532;DHT22;15738;44.860;10.066;2023-02-28T19:11:30;7.20;99.90
28532;DHT22;15738;44.860;10.066;2023-02-28T19:14:15;7.20;99.90
28532;DHT22;15738;44.860;10.066;2023-02-28T19:17:01;7.20;99.90
28532;DHT22;15738;44.860;10.066;2023-02-28T19:19:47;7.20;99.90
28532;DHT22;15738;44.860;10.066;2023-02-28T19:22:32;7.20;99.90
28532;DHT22;15738;44.860;10.066;2023-02-28T19:25:17;7.30;99.90
28532;DHT22;15738;44.860;10.066;2023-02-28T19:28:04;7.20;99.90
28532;DHT22;15738;44.860;10.066;2023-02-28T19:30:50;7.20;99.90
28532;DHT22;15738;44.860;10.066;2023-02-28T19:33:37;7.20;99.90
28532;DHT22;15738;44.860;10.066;2023-02-28T19:36:23;7.30;99.90
28532;DHT22;15738;44.860;10.066;2023-02-28T19:39:09;7.20;99.90
28532;DHT22;15738;44.860;10.066;2023-02-28T19:41:54;7.20;99.90
28532;DHT22;15738;44.860;10.066;2023-02-28T19:44:41;7.30;99.90
28532;DHT22;15738;44.860;10.066;2023-02-28T19:47:31;7.30;99.90
28532;DHT22;15738;44.860;10.066;2023-02-28T19:50:17;7.30;99.90
28532;DHT22;15738;44.860;10.066;2023-02-28T19:53:02;7.30;99.90